KFCS

Butts AAF (Fort Carson) Airport

Fort Carson, Colorado, USA
TAF KFCS 200503Z 2005/2111 33009KT 9999 SCT200 QNH3007INS BECMG 2018/2019 16009KT 9999 SCT200 QNH2993INS BECMG 2101/2102 33009KT 9999 SCT200 QNH2975INS TX09/2022Z TNM05/2012Z
Issued Valid From Valid To
Jan-20 @ 05:03 UTC
(6 hours ago)
Jan-20 @ 05:00 UTC
(6 hours ago)
Jan-21 @ 11:00 UTC
(in 24 hours)
Jan-20 @ 05:00 to Jan-20 @ 18:00
TAF KFCS 200503Z 2005/2111 33009KT 9999 SCT200 QNH3007INS
Wind Visibility Clouds Readings
330° at 9 knots Greater than 6 miles
  • Scattered at 20,000' AGL
Altimeter 30.06" Hg
Pressure 1017.92 hPa
Becoming Jan-20 @ 18:00 to Jan-21 @ 01:00
BECMG 2018/2019 16009KT 9999 SCT200 QNH2993INS
Wind Visibility Clouds Readings
160° at 9 knots Greater than 6 miles
  • Scattered at 20,000' AGL
Altimeter 29.94" Hg
Pressure 1013.92 hPa
Becoming Jan-21 @ 01:00 to Jan-21 @ 11:00
BECMG 2101/2102 33009KT 9999 SCT200 QNH2975INS TX09/2022Z TNM05/2012Z
Wind Visibility Clouds Readings
330° at 9 knots Greater than 6 miles
  • Scattered at 20,000' AGL
Altimeter 29.76" Hg
Pressure 1007.92 hPa
TAF KFCS 200503Z 2005/2111 33009KT 9999 SCT200 QNH3007INS BECMG 2018/2019 16009KT 9999 SCT200 QNH2993INS BECMG 2101/2102 33009KT 9999 SCT200 QNH2975INS TX09/2022Z TNM05/2012Z
Issued Jan-20 @ 05:03 UTC
(6 hours ago)
Valid From Jan-20 @ 05:00 UTC
(6 hours ago)
Valid To Jan-21 @ 11:00 UTC
(in 24 hours)
Jan-20 @ 05:00 - Jan-20 @ 18:00
Wind Visibility
330° at 9 knots Greater than 6 miles
Clouds
  • Scattered at 20,000' AGL
Becoming Jan-20 @ 18:00 - Jan-21 @ 01:00
Wind Visibility
160° at 9 knots Greater than 6 miles
Clouds
  • Scattered at 20,000' AGL
Becoming Jan-21 @ 01:00 - Jan-21 @ 11:00
Wind Visibility
330° at 9 knots Greater than 6 miles
Clouds
  • Scattered at 20,000' AGL